createdAt,value
2022-12-26T00:00:31.833Z,80.96
2022-12-26T00:02:58.701Z,80.81
2022-12-26T00:05:25.483Z,80.64
2022-12-26T00:07:52.228Z,80.73
2022-12-26T00:10:19.096Z,80.94
2022-12-26T00:12:45.855Z,79.35
2022-12-26T00:15:12.599Z,78.81
2022-12-26T00:17:39.425Z,79.50
2022-12-26T00:20:06.605Z,78.44
2022-12-26T00:22:34.489Z,78.83
2022-12-26T00:25:01.228Z,78.21
2022-12-26T00:27:29.903Z,78.88
2022-12-26T00:29:56.758Z,79.46
2022-12-26T00:32:23.584Z,80.17
2022-12-26T00:34:50.337Z,81.12
2022-12-26T00:37:17.085Z,81.33
2022-12-26T00:39:43.905Z,81.78
2022-12-26T00:42:10.996Z,81.82
2022-12-26T00:44:37.703Z,82.38
2022-12-26T00:47:04.490Z,82.91
2022-12-26T00:50:13.764Z,82.92
2022-12-26T00:52:18.105Z,83.26
2022-12-26T00:54:44.912Z,81.57
2022-12-26T00:57:11.897Z,81.20
2022-12-26T00:59:38.657Z,81.33
2022-12-26T01:02:25.440Z,81.89
2022-12-26T01:04:52.373Z,82.50
2022-12-26T01:07:19.161Z,83.05
2022-12-26T01:09:45.937Z,83.73
2022-12-26T01:12:12.739Z,84.55
2022-12-26T01:14:39.530Z,84.42
2022-12-26T01:17:06.289Z,84.34
2022-12-26T01:19:32.971Z,83.86
2022-12-26T01:21:59.747Z,83.29
2022-12-26T01:24:26.522Z,83.16
2022-12-26T01:26:53.261Z,82.61
2022-12-26T01:29:20.101Z,83.12
2022-12-26T01:31:46.982Z,81.60
2022-12-26T01:34:15.031Z,81.91
2022-12-26T01:36:41.716Z,81.80
2022-12-26T01:39:08.713Z,81.29
2022-12-26T01:41:35.527Z,81.37
2022-12-26T01:44:06.592Z,81.09
2022-12-26T01:46:35.944Z,80.86
2022-12-26T01:49:11.742Z,79.59
2022-12-26T01:51:41.383Z,80.46
2022-12-26T01:54:39.856Z,81.32
2022-12-26T01:56:58.373Z,80.65
2022-12-26T01:59:28.417Z,80.62
2022-12-26T02:01:55.719Z,80.02
2022-12-26T02:04:54.598Z,79.92
2022-12-26T02:07:22.277Z,80.04
2022-12-26T02:09:49.274Z,79.63
2022-12-26T02:12:34.834Z,80.38
2022-12-26T02:15:24.721Z,80.23
2022-12-26T02:17:51.472Z,80.50
2022-12-26T02:20:28.114Z,80.46
2022-12-26T02:23:15.655Z,80.11
2022-12-26T02:26:00.596Z,79.56
2022-12-26T02:28:53.237Z,79.11
2022-12-26T02:32:00.084Z,80.24
2022-12-26T02:35:09.840Z,79.75
2022-12-26T02:38:16.385Z,79.99
2022-12-26T02:40:51.887Z,80.13
2022-12-26T02:43:42.617Z,79.94
2022-12-26T02:46:44.353Z,80.38
2022-12-26T02:49:25.982Z,79.56
2022-12-26T02:52:24.724Z,79.73
2022-12-26T02:55:10.066Z,80.29
2022-12-26T02:58:04.495Z,79.38
2022-12-26T03:00:52.250Z,78.77
2022-12-26T03:03:41.008Z,79.90
2022-12-26T03:06:37.384Z,80.05
2022-12-26T03:09:27.572Z,80.24
2022-12-26T03:12:22.280Z,79.66
2022-12-26T03:14:53.887Z,79.36
2022-12-26T03:17:53.159Z,79.99
2022-12-26T03:20:33.061Z,78.84
2022-12-26T03:23:07.977Z,77.88
2022-12-26T03:26:02.998Z,78.89
2022-12-26T03:28:30.371Z,79.43
2022-12-26T03:31:02.031Z,79.91
2022-12-26T03:33:50.982Z,80.60
2022-12-26T03:36:43.701Z,80.62
2022-12-26T03:39:51.473Z,81.04
2022-12-26T03:43:04.499Z,81.02
2022-12-26T03:46:15.970Z,81.05
2022-12-26T03:49:28.262Z,81.22
2022-12-26T03:52:38.177Z,80.90
2022-12-26T03:55:45.182Z,81.13
2022-12-26T03:59:03.763Z,81.60
2022-12-26T04:01:52.685Z,81.14
2022-12-26T04:04:40.983Z,80.76
2022-12-26T04:07:58.256Z,81.24
2022-12-26T04:10:55.830Z,81.12
2022-12-26T04:13:48.639Z,81.30
2022-12-26T04:16:59.984Z,81.72
2022-12-26T04:20:05.615Z,81.47
2022-12-26T04:23:23.508Z,81.94
2022-12-26T04:26:16.499Z,81.40
2022-12-26T04:29:01.733Z,81.51
2022-12-26T04:31:52.922Z,81.22
2022-12-26T04:34:45.890Z,80.73
2022-12-26T04:37:41.588Z,81.05
2022-12-26T04:40:33.886Z,80.65
2022-12-26T04:43:48.208Z,80.71
2022-12-26T04:46:08.572Z,80.47
2022-12-26T04:49:02.149Z,80.69
2022-12-26T04:51:28.878Z,79.88
2022-12-26T04:53:55.672Z,79.34
2022-12-26T04:56:22.473Z,79.86
2022-12-26T04:58:49.309Z,79.93
2022-12-26T05:01:34.643Z,80.01
2022-12-26T05:04:20.036Z,80.84
2022-12-26T05:07:05.270Z,79.98
2022-12-26T05:09:34.812Z,79.95
2022-12-26T05:12:09.272Z,81.19
2022-12-26T05:14:36.806Z,80.79
2022-12-26T05:17:23.838Z,79.33
2022-12-26T05:20:09.491Z,79.28
2022-12-26T05:23:01.468Z,78.38
2022-12-26T05:25:54.341Z,79.19
2022-12-26T05:28:40.055Z,78.95
2022-12-26T05:31:07.236Z,78.90
2022-12-26T05:33:52.498Z,79.66
2022-12-26T05:36:21.671Z,79.41
2022-12-26T05:38:49.065Z,79.71
2022-12-26T05:41:16.441Z,79.70
2022-12-26T05:43:43.318Z,79.98
2022-12-26T05:46:10.187Z,80.10
2022-12-26T05:48:36.962Z,80.47
2022-12-26T05:51:04.809Z,79.60
2022-12-26T05:53:32.783Z,79.46
2022-12-26T05:56:08.024Z,79.79
2022-12-26T05:58:34.756Z,79.94
2022-12-26T06:01:16.781Z,80.05
2022-12-26T06:03:47.779Z,80.57
2022-12-26T06:06:15.096Z,79.14
2022-12-26T06:08:42.197Z,78.52
2022-12-26T06:11:12.597Z,79.10
2022-12-26T06:13:40.985Z,79.41
2022-12-26T06:16:13.757Z,79.78
2022-12-26T06:18:41.403Z,80.11
2022-12-26T06:21:13.770Z,80.24
2022-12-26T06:23:40.845Z,80.56
2022-12-26T06:26:10.428Z,79.94
2022-12-26T06:28:38.346Z,79.70
2022-12-26T06:31:20.755Z,79.84
2022-12-26T06:33:49.875Z,80.29
2022-12-26T06:36:19.918Z,81.23
2022-12-26T06:38:47.065Z,80.95
2022-12-26T06:41:16.854Z,81.07
2022-12-26T06:43:43.711Z,80.91
2022-12-26T06:46:14.713Z,80.34
2022-12-26T06:48:41.670Z,80.36
2022-12-26T06:51:12.830Z,80.85
2022-12-26T06:53:39.670Z,80.54
2022-12-26T06:56:11.969Z,80.86
2022-12-26T06:58:38.922Z,80.65
2022-12-26T07:01:13.972Z,80.47
2022-12-26T07:03:48.554Z,80.27
2022-12-26T07:06:25.669Z,80.82
2022-12-26T07:08:54.347Z,80.07
2022-12-26T07:11:24.162Z,80.03
2022-12-26T07:13:51.755Z,78.90
2022-12-26T07:16:18.536Z,78.63
2022-12-26T07:18:45.402Z,78.46
2022-12-26T07:21:14.609Z,78.54
2022-12-26T07:23:41.890Z,78.24
2022-12-26T07:26:09.283Z,78.59
2022-12-26T07:28:36.067Z,77.02
2022-12-26T07:31:03.995Z,76.68
2022-12-26T07:33:30.798Z,77.21
2022-12-26T07:36:01.100Z,76.50
2022-12-26T07:38:27.926Z,77.22
2022-12-26T07:40:58.306Z,77.77
2022-12-26T07:43:26.038Z,78.34
2022-12-26T07:45:53.009Z,78.01
2022-12-26T07:48:19.792Z,77.48
2022-12-26T07:50:47.415Z,77.15
2022-12-26T07:53:15.208Z,77.14
2022-12-26T07:55:42.682Z,78.22
2022-12-26T07:58:09.553Z,76.55
2022-12-26T08:00:36.328Z,77.32
2022-12-26T08:03:07.443Z,77.48
2022-12-26T08:05:34.903Z,78.78
2022-12-26T08:08:01.816Z,77.40
2022-12-26T08:10:28.645Z,77.98
2022-12-26T08:12:55.640Z,77.99
2022-12-26T08:15:22.554Z,78.12
2022-12-26T08:17:49.262Z,77.12
2022-12-26T08:20:16.155Z,77.14
2022-12-26T08:22:42.874Z,77.59
2022-12-26T08:25:10.110Z,76.03
2022-12-26T08:27:37.031Z,77.26
2022-12-26T08:30:05.038Z,77.41
2022-12-26T08:32:31.908Z,78.16
2022-12-26T08:34:58.692Z,78.89
2022-12-26T08:37:25.524Z,77.92
2022-12-26T08:39:53.647Z,78.23
2022-12-26T08:42:21.479Z,78.97
2022-12-26T08:44:48.793Z,77.82
2022-12-26T08:47:15.963Z,77.77
2022-12-26T08:49:42.722Z,77.39
2022-12-26T08:52:09.720Z,77.81
2022-12-26T08:54:36.507Z,78.28
2022-12-26T08:57:03.302Z,78.17
2022-12-26T08:59:30.097Z,78.63
2022-12-26T09:01:56.969Z,79.56
2022-12-26T09:04:23.821Z,79.74
2022-12-26T09:06:50.654Z,80.43
2022-12-26T09:09:17.608Z,81.31
2022-12-26T09:11:44.577Z,81.40
2022-12-26T09:14:11.867Z,80.23
2022-12-26T09:16:50.347Z,80.41
2022-12-26T09:19:19.518Z,80.46
2022-12-26T09:21:47.773Z,80.96
2022-12-26T09:24:17.299Z,81.19
2022-12-26T09:26:44.628Z,81.44
2022-12-26T09:29:12.933Z,82.24
2022-12-26T09:31:39.813Z,82.02
2022-12-26T09:34:07.188Z,81.82
2022-12-26T09:36:38.164Z,81.96
2022-12-26T09:39:05.506Z,81.20
2022-12-26T09:41:38.173Z,81.34
2022-12-26T09:44:13.759Z,81.08
2022-12-26T09:46:48.772Z,80.96
2022-12-26T09:49:27.405Z,81.11
2022-12-26T09:51:58.867Z,81.42
2022-12-26T09:54:37.465Z,81.58
2022-12-26T09:57:18.408Z,81.34
2022-12-26T09:59:55.563Z,81.81
2022-12-26T10:02:25.465Z,82.19
2022-12-26T10:04:54.758Z,81.93
2022-12-26T10:07:34.102Z,82.08
2022-12-26T10:10:28.234Z,82.89
2022-12-26T10:13:06.225Z,83.52
2022-12-26T10:15:46.481Z,83.30
2022-12-26T10:18:31.658Z,82.80
2022-12-26T10:21:26.321Z,83.45
2022-12-26T10:23:58.910Z,83.26
2022-12-26T10:26:31.754Z,83.54
2022-12-26T10:29:18.301Z,83.66
2022-12-26T10:31:50.867Z,83.95
2022-12-26T10:34:24.109Z,83.30
2022-12-26T10:37:01.278Z,83.35
2022-12-26T10:39:38.461Z,83.71
2022-12-26T10:42:38.395Z,83.45
2022-12-26T10:45:45.277Z,82.56
2022-12-26T10:48:16.341Z,83.69
2022-12-26T10:50:49.213Z,84.32
2022-12-26T10:53:17.216Z,82.33
2022-12-26T10:55:44.567Z,82.14
2022-12-26T10:58:30.934Z,83.04
2022-12-26T11:01:17.747Z,82.02
2022-12-26T11:04:02.798Z,81.32
2022-12-26T11:06:41.838Z,81.79
2022-12-26T11:09:28.644Z,81.21
2022-12-26T11:11:55.763Z,81.63
2022-12-26T11:14:34.059Z,82.22
2022-12-26T11:17:28.755Z,81.89
2022-12-26T11:20:10.787Z,81.72
2022-12-26T11:22:38.468Z,81.48
2022-12-26T11:25:10.978Z,82.38
2022-12-26T11:27:41.445Z,81.93
2022-12-26T11:30:14.130Z,81.77
2022-12-26T11:32:42.951Z,81.78
2022-12-26T11:35:26.152Z,81.25
2022-12-26T11:37:56.222Z,81.22
2022-12-26T11:40:37.060Z,81.33
2022-12-26T11:43:07.585Z,82.28
2022-12-26T11:45:42.571Z,82.19
2022-12-26T11:48:24.732Z,82.12
2022-12-26T11:50:52.389Z,82.04
2022-12-26T11:53:22.102Z,82.02
2022-12-26T11:56:08.715Z,82.39
2022-12-26T11:58:36.120Z,82.37
2022-12-26T12:01:06.460Z,82.61
2022-12-26T12:03:48.635Z,81.80
2022-12-26T12:06:53.006Z,82.35
2022-12-26T12:09:25.606Z,82.47
2022-12-26T12:12:29.351Z,82.35
2022-12-26T12:15:03.420Z,81.88
2022-12-26T12:17:39.374Z,81.65
2022-12-26T12:20:50.266Z,82.18
2022-12-26T12:23:21.109Z,82.90
2022-12-26T12:26:03.855Z,82.88
2022-12-26T12:28:50.850Z,83.02
2022-12-26T12:31:31.145Z,82.91
2022-12-26T12:34:06.794Z,83.52
2022-12-26T12:36:51.218Z,82.99
2022-12-26T12:39:30.867Z,83.84
2022-12-26T12:42:06.376Z,83.42
2022-12-26T12:44:56.535Z,83.63
2022-12-26T12:48:19.246Z,84.32
2022-12-26T12:50:57.753Z,84.28
2022-12-26T12:53:46.072Z,84.55
2022-12-26T12:56:43.861Z,83.81
2022-12-26T12:59:42.963Z,83.43
2022-12-26T13:02:29.290Z,83.61
2022-12-26T13:05:25.582Z,83.90
2022-12-26T13:08:08.247Z,84.29
2022-12-26T13:10:42.664Z,84.54
2022-12-26T13:13:38.613Z,84.66
2022-12-26T13:16:13.051Z,84.54
2022-12-26T13:18:49.331Z,84.82
2022-12-26T13:21:16.923Z,84.66
2022-12-26T13:24:11.526Z,84.29
2022-12-26T13:26:43.594Z,84.73
2022-12-26T13:29:19.380Z,84.69
2022-12-26T13:31:46.765Z,85.14
2022-12-26T13:34:18.734Z,85.04
2022-12-26T13:36:51.276Z,85.35
2022-12-26T13:39:23.931Z,85.44
2022-12-26T13:42:18.940Z,85.39
2022-12-26T13:44:50.009Z,85.27
2022-12-26T13:47:36.490Z,85.65
2022-12-26T13:50:40.609Z,85.57
2022-12-26T13:53:37.281Z,85.02
2022-12-26T13:56:19.296Z,84.36
2022-12-26T13:58:47.355Z,84.58
2022-12-26T14:01:38.148Z,83.98
2022-12-26T14:04:37.941Z,83.77
2022-12-26T14:07:25.574Z,84.12
2022-12-26T14:10:04.127Z,84.13
2022-12-26T14:13:09.160Z,83.78
2022-12-26T14:15:58.079Z,84.05
2022-12-26T14:18:33.561Z,83.86
2022-12-26T14:21:21.389Z,84.40
2022-12-26T14:23:54.458Z,85.17
2022-12-26T14:26:28.760Z,85.27
2022-12-26T14:29:16.691Z,85.07
2022-12-26T14:31:43.393Z,85.00
2022-12-26T14:34:43.611Z,84.82
2022-12-26T14:37:16.118Z,83.98
2022-12-26T14:40:16.760Z,84.54
2022-12-26T14:43:35.948Z,84.53
2022-12-26T14:46:22.872Z,84.72
2022-12-26T14:48:54.623Z,85.18
2022-12-26T14:51:21.346Z,84.84
2022-12-26T14:54:24.787Z,84.52
2022-12-26T14:56:52.767Z,85.58
2022-12-26T14:59:25.630Z,85.81
2022-12-26T15:02:10.511Z,86.13
2022-12-26T15:04:37.289Z,86.13
2022-12-26T15:07:36.111Z,86.36
2022-12-26T15:10:14.709Z,86.86
2022-12-26T15:13:02.964Z,87.01
2022-12-26T15:15:57.469Z,87.19
2022-12-26T15:18:42.626Z,87.15
2022-12-26T15:21:32.951Z,86.96
2022-12-26T15:25:18.134Z,86.82
2022-12-26T15:27:51.843Z,87.07
2022-12-26T15:30:36.707Z,87.35
2022-12-26T15:33:15.574Z,87.57
2022-12-26T15:36:03.386Z,88.00
2022-12-26T15:39:06.004Z,87.82
2022-12-26T15:41:45.763Z,88.27
2022-12-26T15:44:18.098Z,88.25
2022-12-26T15:47:02.055Z,88.11
2022-12-26T15:49:36.933Z,88.00
2022-12-26T15:52:19.059Z,88.25
2022-12-26T15:54:51.503Z,88.50
2022-12-26T15:57:32.035Z,88.83
2022-12-26T16:00:04.616Z,88.69
2022-12-26T16:02:35.579Z,89.73
2022-12-26T16:05:11.618Z,90.68
2022-12-26T16:07:47.783Z,92.18
2022-12-26T16:10:32.173Z,92.59
2022-12-26T16:13:03.441Z,93.50
2022-12-26T16:15:33.006Z,93.79
2022-12-26T16:18:19.518Z,93.85
2022-12-26T16:21:06.864Z,93.46
2022-12-26T16:23:40.072Z,93.51
2022-12-26T16:26:07.614Z,93.46
2022-12-26T16:28:39.345Z,93.11
2022-12-26T16:31:06.747Z,92.58
2022-12-26T16:33:43.223Z,92.00
2022-12-26T16:36:16.083Z,92.02
2022-12-26T16:38:44.545Z,92.23
2022-12-26T16:41:26.327Z,92.22
2022-12-26T16:43:55.379Z,92.52
2022-12-26T16:46:28.883Z,93.13
2022-12-26T16:48:58.828Z,92.79
2022-12-26T16:51:46.891Z,92.63
2022-12-26T16:54:19.714Z,92.72
2022-12-26T16:57:21.014Z,92.50
2022-12-26T16:59:58.134Z,92.15
2022-12-26T17:02:29.706Z,91.81
2022-12-26T17:05:06.765Z,91.57
2022-12-26T17:07:36.995Z,91.29
2022-12-26T17:10:07.058Z,91.48
2022-12-26T17:12:39.362Z,90.46
2022-12-26T17:15:07.382Z,90.13
2022-12-26T17:17:38.801Z,90.02
2022-12-26T17:20:23.838Z,90.67
2022-12-26T17:22:55.703Z,90.77
2022-12-26T17:25:27.919Z,90.64
2022-12-26T17:28:09.917Z,90.28
2022-12-26T17:30:37.714Z,90.09
2022-12-26T17:33:28.464Z,89.77
2022-12-26T17:38:54.466Z,89.68
2022-12-26T17:41:21.253Z,89.17
2022-12-26T17:43:48.242Z,88.88
2022-12-26T17:46:17.684Z,89.11
2022-12-26T17:48:45.599Z,89.34
2022-12-26T17:51:16.498Z,89.20
2022-12-26T17:53:48.537Z,88.83
2022-12-26T17:56:16.909Z,88.72
2022-12-26T17:58:44.058Z,89.12
2022-12-26T18:01:13.689Z,88.65
2022-12-26T18:03:44.578Z,88.51
2022-12-26T18:06:16.557Z,88.77
2022-12-26T18:08:44.631Z,88.42
2022-12-26T18:11:13.996Z,87.81
2022-12-26T18:13:41.300Z,88.01
2022-12-26T18:16:11.566Z,87.81
2022-12-26T18:18:41.191Z,88.12
2022-12-26T18:21:10.155Z,88.05
2022-12-26T18:23:37.768Z,88.13
2022-12-26T18:26:07.983Z,88.26
2022-12-26T18:28:35.554Z,88.32
2022-12-26T18:31:02.402Z,88.38
2022-12-26T18:33:29.153Z,88.64
2022-12-26T18:35:56.443Z,88.18
2022-12-26T18:38:23.237Z,89.08
2022-12-26T18:40:54.713Z,89.16
2022-12-26T18:43:21.521Z,88.73
2022-12-26T18:45:48.331Z,88.88
2022-12-26T18:48:16.839Z,88.68
2022-12-26T18:50:43.971Z,88.64
2022-12-26T18:53:11.366Z,88.27
2022-12-26T18:55:38.999Z,88.32
2022-12-26T18:58:06.504Z,87.96
2022-12-26T19:00:33.290Z,88.03
2022-12-26T19:03:00.071Z,88.20
2022-12-26T19:05:31.164Z,88.57
2022-12-26T19:07:59.130Z,89.04
2022-12-26T19:10:29.581Z,89.22
2022-12-26T19:13:02.886Z,89.15
2022-12-26T19:15:36.328Z,89.08
2022-12-26T19:18:04.574Z,88.59
2022-12-26T19:20:31.467Z,88.91
2022-12-26T19:22:58.325Z,88.84
2022-12-26T19:25:25.939Z,88.73
2022-12-26T19:27:53.575Z,89.30
2022-12-26T19:30:21.696Z,88.97
2022-12-26T19:32:49.786Z,88.83
2022-12-26T19:35:17.340Z,88.56
2022-12-26T19:37:44.650Z,88.51
2022-12-26T19:40:12.669Z,89.19
2022-12-26T19:42:39.757Z,89.05
2022-12-26T19:45:09.556Z,89.28
2022-12-26T19:47:36.928Z,88.33
2022-12-26T19:50:05.378Z,88.66
2022-12-26T19:52:32.582Z,88.32
2022-12-26T19:54:59.436Z,88.48
2022-12-26T19:57:26.295Z,87.85
2022-12-26T19:59:53.105Z,87.44
2022-12-26T20:02:20.107Z,87.93
2022-12-26T20:04:46.959Z,88.19
2022-12-26T20:07:13.786Z,88.62
2022-12-26T20:09:40.567Z,88.32
2022-12-26T20:12:07.459Z,88.20
2022-12-26T20:14:34.403Z,88.41
2022-12-26T20:17:06.036Z,88.70
2022-12-26T20:19:34.267Z,88.56
2022-12-26T20:22:01.049Z,88.72
2022-12-26T20:24:27.860Z,88.70
2022-12-26T20:26:54.649Z,88.01
2022-12-26T20:29:21.752Z,88.28
2022-12-26T20:31:49.468Z,88.55
2022-12-26T20:34:16.607Z,88.85
2022-12-26T20:36:43.524Z,89.26
2022-12-26T20:39:16.528Z,89.65
2022-12-26T20:41:43.671Z,89.48
2022-12-26T20:44:13.297Z,88.90
2022-12-26T20:46:41.162Z,89.13
2022-12-26T20:49:08.070Z,88.85
2022-12-26T20:51:37.816Z,88.84
2022-12-26T20:54:06.886Z,88.58
2022-12-26T20:56:34.710Z,88.89
2022-12-26T20:59:01.659Z,88.89
2022-12-26T21:01:29.120Z,89.12
2022-12-26T21:03:57.459Z,89.10
2022-12-26T21:06:27.759Z,89.24
2022-12-26T21:08:56.406Z,89.12
2022-12-26T21:11:36.102Z,88.97
2022-12-26T21:14:10.524Z,89.18
2022-12-26T21:16:40.520Z,89.47
2022-12-26T21:19:12.537Z,89.48
2022-12-26T21:21:44.337Z,89.60
2022-12-26T21:24:20.167Z,90.02
2022-12-26T21:26:47.544Z,89.91
2022-12-26T21:29:18.488Z,90.17
2022-12-26T21:31:45.905Z,89.61
2022-12-26T21:34:15.575Z,89.50
2022-12-26T21:37:03.347Z,89.35
2022-12-26T21:39:30.756Z,89.30
2022-12-26T21:41:57.807Z,88.80
2022-12-26T21:44:24.617Z,88.58
2022-12-26T21:46:51.389Z,88.97
2022-12-26T21:49:18.278Z,89.03
2022-12-26T21:51:45.016Z,89.31
2022-12-26T21:54:30.320Z,89.42
2022-12-26T21:56:57.068Z,88.37
2022-12-26T21:59:42.469Z,88.16
2022-12-26T22:02:33.634Z,87.48
2022-12-26T22:05:01.697Z,87.50
2022-12-26T22:07:28.934Z,87.44
2022-12-26T22:09:55.710Z,87.77
2022-12-26T22:12:41.099Z,87.57
2022-12-26T22:15:31.258Z,87.80
2022-12-26T22:17:58.153Z,87.34
2022-12-26T22:20:25.438Z,87.23
2022-12-26T22:22:52.299Z,87.03
2022-12-26T22:25:19.901Z,87.01
2022-12-26T22:27:46.720Z,87.31
2022-12-26T22:30:13.613Z,86.82
2022-12-26T22:32:40.519Z,87.31
2022-12-26T22:35:11.854Z,88.00
2022-12-26T22:37:41.584Z,87.81
2022-12-26T22:40:08.942Z,87.26
2022-12-26T22:42:35.690Z,87.52
2022-12-26T22:45:02.436Z,87.49
2022-12-26T22:47:30.549Z,87.60
2022-12-26T22:49:57.312Z,88.19
2022-12-26T22:52:24.112Z,88.10
2022-12-26T22:54:50.832Z,87.95
2022-12-26T22:57:17.595Z,88.62
2022-12-26T23:00:11.388Z,89.10
2022-12-26T23:02:31.972Z,88.77
2022-12-26T23:04:59.113Z,89.14
2022-12-26T23:07:26.047Z,89.16
2022-12-26T23:09:53.144Z,89.22
2022-12-26T23:12:38.830Z,89.08
2022-12-26T23:15:06.274Z,89.03
2022-12-26T23:17:55.987Z,89.13
2022-12-26T23:20:45.184Z,89.28
2022-12-26T23:23:12.226Z,89.28
2022-12-26T23:25:39.674Z,88.45
2022-12-26T23:28:25.074Z,88.32
2022-12-26T23:30:51.972Z,88.55
2022-12-26T23:33:18.782Z,88.89
2022-12-26T23:35:45.517Z,89.08
2022-12-26T23:38:12.209Z,89.27
2022-12-26T23:40:38.956Z,89.56
2022-12-26T23:43:05.737Z,89.54
2022-12-26T23:45:32.440Z,89.77
2022-12-26T23:47:59.177Z,89.88
2022-12-26T23:50:25.946Z,89.68
2022-12-26T23:52:52.652Z,89.84
2022-12-26T23:55:19.432Z,89.84
2022-12-26T23:57:46.340Z,90.16
